sensor_id;sensor_type;location;lat;lon;timestamp;P1;durP1;ratioP1;P2;durP2;ratioP2
74892;SDS011;63446;56.272;43.922;2022-09-29T00:01:11;4.90;;;1.00;;
74892;SDS011;63446;56.272;43.922;2022-09-29T00:03:38;5.32;;;1.30;;
74892;SDS011;63446;56.272;43.922;2022-09-29T00:06:08;3.58;;;1.35;;
74892;SDS011;63446;56.272;43.922;2022-09-29T00:08:38;4.13;;;1.58;;
74892;SDS011;63446;56.272;43.922;2022-09-29T00:11:07;4.25;;;1.55;;
74892;SDS011;63446;56.272;43.922;2022-09-29T00:13:34;5.05;;;1.55;;
74892;SDS011;63446;56.272;43.922;2022-09-29T00:16:00;3.57;;;1.23;;
74892;SDS011;63446;56.272;43.922;2022-09-29T00:18:28;5.50;;;1.50;;
74892;SDS011;63446;56.272;43.922;2022-09-29T00:21:08;3.88;;;1.30;;
74892;SDS011;63446;56.272;43.922;2022-09-29T00:23:36;4.20;;;1.50;;
74892;SDS011;63446;56.272;43.922;2022-09-29T00:28:33;4.00;;;1.35;;
74892;SDS011;63446;56.272;43.922;2022-09-29T00:31:00;3.78;;;1.40;;
74892;SDS011;63446;56.272;43.922;2022-09-29T00:33:28;3.30;;;1.05;;
74892;SDS011;63446;56.272;43.922;2022-09-29T00:36:00;3.63;;;1.17;;
74892;SDS011;63446;56.272;43.922;2022-09-29T00:38:31;3.30;;;1.23;;
74892;SDS011;63446;56.272;43.922;2022-09-29T00:40:58;4.22;;;1.17;;
74892;SDS011;63446;56.272;43.922;2022-09-29T00:43:46;3.88;;;1.38;;
74892;SDS011;63446;56.272;43.922;2022-09-29T00:51:50;4.90;;;1.40;;
74892;SDS011;63446;56.272;43.922;2022-09-29T00:54:24;4.43;;;1.50;;
74892;SDS011;63446;56.272;43.922;2022-09-29T00:56:53;3.60;;;1.13;;
74892;SDS011;63446;56.272;43.922;2022-09-29T00:59:31;3.30;;;1.30;;
74892;SDS011;63446;56.272;43.922;2022-09-29T01:02:03;4.68;;;1.40;;
74892;SDS011;63446;56.272;43.922;2022-09-29T01:04:30;5.22;;;1.30;;
74892;SDS011;63446;56.272;43.922;2022-09-29T01:06:58;3.97;;;1.50;;
74892;SDS011;63446;56.272;43.922;2022-09-29T01:09:25;5.33;;;1.50;;
74892;SDS011;63446;56.272;43.922;2022-09-29T01:11:54;5.53;;;1.40;;
74892;SDS011;63446;56.272;43.922;2022-09-29T01:14:25;3.03;;;1.10;;
74892;SDS011;63446;56.272;43.922;2022-09-29T01:16:53;5.57;;;1.58;;
74892;SDS011;63446;56.272;43.922;2022-09-29T01:19:26;4.50;;;1.60;;
74892;SDS011;63446;56.272;43.922;2022-09-29T01:25:03;3.38;;;1.10;;
74892;SDS011;63446;56.272;43.922;2022-09-29T01:36:23;4.63;;;1.43;;
74892;SDS011;63446;56.272;43.922;2022-09-29T01:39:18;4.90;;;1.27;;
74892;SDS011;63446;56.272;43.922;2022-09-29T01:41:54;4.47;;;1.65;;
74892;SDS011;63446;56.272;43.922;2022-09-29T01:44:43;4.40;;;1.60;;
74892;SDS011;63446;56.272;43.922;2022-09-29T01:50:12;3.90;;;1.20;;
74892;SDS011;63446;56.272;43.922;2022-09-29T01:52:43;4.10;;;1.42;;
74892;SDS011;63446;56.272;43.922;2022-09-29T01:55:17;3.55;;;1.20;;
74892;SDS011;63446;56.272;43.922;2022-09-29T01:57:49;4.13;;;1.48;;
74892;SDS011;63446;56.272;43.922;2022-09-29T02:00:21;4.85;;;1.55;;
74892;SDS011;63446;56.272;43.922;2022-09-29T02:02:56;4.87;;;1.30;;
74892;SDS011;63446;56.272;43.922;2022-09-29T02:05:31;5.80;;;1.48;;
74892;SDS011;63446;56.272;43.922;2022-09-29T02:08:06;3.55;;;1.38;;
74892;SDS011;63446;56.272;43.922;2022-09-29T02:10:42;6.63;;;1.50;;
74892;SDS011;63446;56.272;43.922;2022-09-29T02:13:14;4.25;;;1.30;;
74892;SDS011;63446;56.272;43.922;2022-09-29T02:15:44;5.40;;;1.63;;
74892;SDS011;63446;56.272;43.922;2022-09-29T02:18:15;4.70;;;1.88;;
74892;SDS011;63446;56.272;43.922;2022-09-29T02:20:46;5.18;;;1.90;;
74892;SDS011;63446;56.272;43.922;2022-09-29T02:23:13;4.35;;;1.35;;
74892;SDS011;63446;56.272;43.922;2022-09-29T02:25:38;7.23;;;1.87;;
74892;SDS011;63446;56.272;43.922;2022-09-29T02:28:05;5.63;;;1.80;;
74892;SDS011;63446;56.272;43.922;2022-09-29T02:30:32;4.60;;;1.27;;
74892;SDS011;63446;56.272;43.922;2022-09-29T02:32:59;6.10;;;1.70;;
74892;SDS011;63446;56.272;43.922;2022-09-29T02:35:28;9.77;;;2.08;;
74892;SDS011;63446;56.272;43.922;2022-09-29T02:41:06;6.65;;;1.73;;
74892;SDS011;63446;56.272;43.922;2022-09-29T03:00:21;6.03;;;1.88;;
74892;SDS011;63446;56.272;43.922;2022-09-29T03:02:47;10.45;;;2.70;;
74892;SDS011;63446;56.272;43.922;2022-09-29T03:05:14;10.17;;;2.63;;
74892;SDS011;63446;56.272;43.922;2022-09-29T03:07:43;9.88;;;2.75;;
74892;SDS011;63446;56.272;43.922;2022-09-29T03:10:09;11.68;;;2.88;;
74892;SDS011;63446;56.272;43.922;2022-09-29T03:12:37;13.43;;;2.80;;
74892;SDS011;63446;56.272;43.922;2022-09-29T03:15:03;11.93;;;3.20;;
74892;SDS011;63446;56.272;43.922;2022-09-29T03:17:31;11.73;;;3.73;;
74892;SDS011;63446;56.272;43.922;2022-09-29T03:19:57;12.10;;;3.08;;
74892;SDS011;63446;56.272;43.922;2022-09-29T03:22:23;8.18;;;2.28;;
74892;SDS011;63446;56.272;43.922;2022-09-29T03:24:49;9.43;;;2.78;;
74892;SDS011;63446;56.272;43.922;2022-09-29T03:27:15;10.85;;;2.90;;
74892;SDS011;63446;56.272;43.922;2022-09-29T03:29:41;6.82;;;2.10;;
74892;SDS011;63446;56.272;43.922;2022-09-29T03:32:07;7.80;;;2.30;;
74892;SDS011;63446;56.272;43.922;2022-09-29T03:34:33;6.63;;;1.98;;
74892;SDS011;63446;56.272;43.922;2022-09-29T03:37:00;5.38;;;1.75;;
74892;SDS011;63446;56.272;43.922;2022-09-29T03:39:26;5.32;;;2.00;;
74892;SDS011;63446;56.272;43.922;2022-09-29T03:41:53;6.25;;;1.73;;
74892;SDS011;63446;56.272;43.922;2022-09-29T03:44:19;4.70;;;1.60;;
74892;SDS011;63446;56.272;43.922;2022-09-29T03:46:46;6.93;;;1.70;;
74892;SDS011;63446;56.272;43.922;2022-09-29T03:49:13;5.07;;;1.40;;
74892;SDS011;63446;56.272;43.922;2022-09-29T03:51:39;5.43;;;1.52;;
74892;SDS011;63446;56.272;43.922;2022-09-29T03:54:06;4.90;;;1.60;;
74892;SDS011;63446;56.272;43.922;2022-09-29T03:56:32;5.20;;;1.80;;
74892;SDS011;63446;56.272;43.922;2022-09-29T03:58:59;7.88;;;1.85;;
74892;SDS011;63446;56.272;43.922;2022-09-29T04:01:25;7.00;;;1.83;;
74892;SDS011;63446;56.272;43.922;2022-09-29T04:03:50;4.78;;;1.60;;
74892;SDS011;63446;56.272;43.922;2022-09-29T04:06:16;4.67;;;1.83;;
74892;SDS011;63446;56.272;43.922;2022-09-29T04:08:42;6.80;;;1.92;;
74892;SDS011;63446;56.272;43.922;2022-09-29T04:11:07;5.60;;;2.00;;
74892;SDS011;63446;56.272;43.922;2022-09-29T04:13:34;6.03;;;1.95;;
74892;SDS011;63446;56.272;43.922;2022-09-29T04:16:00;8.00;;;2.80;;
74892;SDS011;63446;56.272;43.922;2022-09-29T04:18:28;5.88;;;2.00;;
74892;SDS011;63446;56.272;43.922;2022-09-29T04:20:54;6.07;;;2.03;;
74892;SDS011;63446;56.272;43.922;2022-09-29T04:23:25;6.55;;;2.05;;
74892;SDS011;63446;56.272;43.922;2022-09-29T04:25:54;5.10;;;1.90;;
74892;SDS011;63446;56.272;43.922;2022-09-29T04:28:20;6.13;;;1.80;;
74892;SDS011;63446;56.272;43.922;2022-09-29T04:30:46;5.72;;;2.10;;
74892;SDS011;63446;56.272;43.922;2022-09-29T04:33:12;6.55;;;2.13;;
74892;SDS011;63446;56.272;43.922;2022-09-29T04:35:37;8.23;;;1.97;;
74892;SDS011;63446;56.272;43.922;2022-09-29T04:38:03;5.63;;;2.00;;
74892;SDS011;63446;56.272;43.922;2022-09-29T04:40:29;5.03;;;1.90;;
74892;SDS011;63446;56.272;43.922;2022-09-29T04:42:56;5.33;;;1.80;;
74892;SDS011;63446;56.272;43.922;2022-09-29T04:45:22;6.32;;;1.83;;
74892;SDS011;63446;56.272;43.922;2022-09-29T04:47:48;5.05;;;1.75;;
74892;SDS011;63446;56.272;43.922;2022-09-29T04:50:15;7.43;;;2.20;;
74892;SDS011;63446;56.272;43.922;2022-09-29T04:52:41;5.15;;;1.70;;
74892;SDS011;63446;56.272;43.922;2022-09-29T04:55:07;9.82;;;2.20;;
74892;SDS011;63446;56.272;43.922;2022-09-29T04:57:36;7.15;;;2.47;;
74892;SDS011;63446;56.272;43.922;2022-09-29T05:00:03;7.60;;;2.40;;
74892;SDS011;63446;56.272;43.922;2022-09-29T05:02:30;5.93;;;1.95;;
74892;SDS011;63446;56.272;43.922;2022-09-29T05:04:56;8.18;;;2.80;;
74892;SDS011;63446;56.272;43.922;2022-09-29T05:07:21;7.45;;;2.88;;
74892;SDS011;63446;56.272;43.922;2022-09-29T05:09:48;7.50;;;2.05;;
74892;SDS011;63446;56.272;43.922;2022-09-29T05:12:13;7.82;;;3.08;;
74892;SDS011;63446;56.272;43.922;2022-09-29T05:14:39;10.53;;;3.17;;
74892;SDS011;63446;56.272;43.922;2022-09-29T05:17:05;8.13;;;2.72;;
74892;SDS011;63446;56.272;43.922;2022-09-29T05:19:31;8.53;;;2.70;;
74892;SDS011;63446;56.272;43.922;2022-09-29T05:21:57;7.13;;;2.15;;
74892;SDS011;63446;56.272;43.922;2022-09-29T05:24:24;6.60;;;2.30;;
74892;SDS011;63446;56.272;43.922;2022-09-29T05:26:50;7.87;;;2.30;;
74892;SDS011;63446;56.272;43.922;2022-09-29T05:29:16;5.53;;;2.20;;
74892;SDS011;63446;56.272;43.922;2022-09-29T05:31:42;6.63;;;2.22;;
74892;SDS011;63446;56.272;43.922;2022-09-29T05:34:08;5.87;;;1.60;;
74892;SDS011;63446;56.272;43.922;2022-09-29T05:36:34;7.53;;;2.65;;
74892;SDS011;63446;56.272;43.922;2022-09-29T05:39:00;6.10;;;2.08;;
74892;SDS011;63446;56.272;43.922;2022-09-29T05:41:26;8.97;;;2.40;;
74892;SDS011;63446;56.272;43.922;2022-09-29T05:43:52;7.50;;;2.40;;
74892;SDS011;63446;56.272;43.922;2022-09-29T05:46:19;8.43;;;2.72;;
74892;SDS011;63446;56.272;43.922;2022-09-29T05:48:46;7.85;;;2.30;;
74892;SDS011;63446;56.272;43.922;2022-09-29T05:51:14;8.27;;;2.57;;
74892;SDS011;63446;56.272;43.922;2022-09-29T05:53:41;8.48;;;3.03;;
74892;SDS011;63446;56.272;43.922;2022-09-29T05:56:11;8.40;;;3.10;;
74892;SDS011;63446;56.272;43.922;2022-09-29T05:58:40;8.82;;;3.30;;
74892;SDS011;63446;56.272;43.922;2022-09-29T06:03:33;8.20;;;3.08;;
74892;SDS011;63446;56.272;43.922;2022-09-29T06:06:19;8.43;;;2.83;;
74892;SDS011;63446;56.272;43.922;2022-09-29T06:08:54;6.95;;;2.70;;
74892;SDS011;63446;56.272;43.922;2022-09-29T06:11:22;8.75;;;2.80;;
74892;SDS011;63446;56.272;43.922;2022-09-29T06:13:53;6.67;;;2.67;;
74892;SDS011;63446;56.272;43.922;2022-09-29T06:16:20;7.97;;;2.95;;
74892;SDS011;63446;56.272;43.922;2022-09-29T06:18:48;9.68;;;3.42;;
74892;SDS011;63446;56.272;43.922;2022-09-29T06:21:16;11.02;;;3.17;;
74892;SDS011;63446;56.272;43.922;2022-09-29T06:23:43;9.40;;;2.70;;
74892;SDS011;63446;56.272;43.922;2022-09-29T06:26:10;9.18;;;2.97;;
74892;SDS011;63446;56.272;43.922;2022-09-29T06:28:37;8.88;;;3.00;;
74892;SDS011;63446;56.272;43.922;2022-09-29T06:31:10;9.95;;;3.10;;
74892;SDS011;63446;56.272;43.922;2022-09-29T06:33:37;10.00;;;2.95;;
74892;SDS011;63446;56.272;43.922;2022-09-29T06:39:06;8.68;;;3.20;;
74892;SDS011;63446;56.272;43.922;2022-09-29T06:41:33;8.35;;;2.67;;
74892;SDS011;63446;56.272;43.922;2022-09-29T06:43:59;6.88;;;2.53;;
74892;SDS011;63446;56.272;43.922;2022-09-29T06:46:26;7.22;;;2.58;;
74892;SDS011;63446;56.272;43.922;2022-09-29T06:48:53;10.00;;;2.70;;
74892;SDS011;63446;56.272;43.922;2022-09-29T06:51:20;7.78;;;2.38;;
74892;SDS011;63446;56.272;43.922;2022-09-29T06:53:49;6.88;;;2.78;;
74892;SDS011;63446;56.272;43.922;2022-09-29T06:56:16;6.40;;;2.65;;
74892;SDS011;63446;56.272;43.922;2022-09-29T06:58:43;9.35;;;2.92;;
74892;SDS011;63446;56.272;43.922;2022-09-29T07:01:09;6.73;;;2.57;;
74892;SDS011;63446;56.272;43.922;2022-09-29T07:03:36;8.82;;;3.13;;
74892;SDS011;63446;56.272;43.922;2022-09-29T07:06:05;9.32;;;3.35;;
74892;SDS011;63446;56.272;43.922;2022-09-29T07:08:32;8.18;;;2.90;;
74892;SDS011;63446;56.272;43.922;2022-09-29T07:11:01;9.50;;;3.08;;
74892;SDS011;63446;56.272;43.922;2022-09-29T07:13:27;7.82;;;3.17;;
74892;SDS011;63446;56.272;43.922;2022-09-29T07:15:54;7.80;;;2.90;;
74892;SDS011;63446;56.272;43.922;2022-09-29T07:18:20;10.10;;;3.47;;
74892;SDS011;63446;56.272;43.922;2022-09-29T07:20:46;8.10;;;2.75;;
74892;SDS011;63446;56.272;43.922;2022-09-29T07:23:12;7.35;;;2.58;;
74892;SDS011;63446;56.272;43.922;2022-09-29T07:25:38;10.37;;;3.10;;
74892;SDS011;63446;56.272;43.922;2022-09-29T07:28:04;8.63;;;3.30;;
74892;SDS011;63446;56.272;43.922;2022-09-29T07:30:29;8.43;;;3.03;;
74892;SDS011;63446;56.272;43.922;2022-09-29T07:32:56;9.02;;;3.50;;
74892;SDS011;63446;56.272;43.922;2022-09-29T07:35:21;9.80;;;3.60;;
74892;SDS011;63446;56.272;43.922;2022-09-29T07:37:51;10.35;;;3.95;;
74892;SDS011;63446;56.272;43.922;2022-09-29T07:40:18;11.13;;;3.67;;
74892;SDS011;63446;56.272;43.922;2022-09-29T07:42:46;10.90;;;3.70;;
74892;SDS011;63446;56.272;43.922;2022-09-29T07:45:13;14.43;;;5.60;;
74892;SDS011;63446;56.272;43.922;2022-09-29T07:47:40;16.35;;;5.35;;
74892;SDS011;63446;56.272;43.922;2022-09-29T07:50:06;12.40;;;4.97;;
74892;SDS011;63446;56.272;43.922;2022-09-29T07:52:32;11.93;;;4.60;;
74892;SDS011;63446;56.272;43.922;2022-09-29T07:54:58;12.60;;;5.10;;
74892;SDS011;63446;56.272;43.922;2022-09-29T07:57:24;14.60;;;4.10;;
74892;SDS011;63446;56.272;43.922;2022-09-29T07:59:49;12.90;;;4.25;;
74892;SDS011;63446;56.272;43.922;2022-09-29T08:02:15;12.43;;;3.97;;
74892;SDS011;63446;56.272;43.922;2022-09-29T08:04:41;11.23;;;4.30;;
74892;SDS011;63446;56.272;43.922;2022-09-29T08:07:08;13.27;;;4.30;;
74892;SDS011;63446;56.272;43.922;2022-09-29T08:09:34;10.27;;;3.83;;
74892;SDS011;63446;56.272;43.922;2022-09-29T08:12:00;10.27;;;4.13;;
74892;SDS011;63446;56.272;43.922;2022-09-29T08:14:27;10.83;;;4.17;;
74892;SDS011;63446;56.272;43.922;2022-09-29T08:16:52;12.93;;;4.13;;
74892;SDS011;63446;56.272;43.922;2022-09-29T08:19:19;9.80;;;4.53;;
74892;SDS011;63446;56.272;43.922;2022-09-29T08:21:45;10.20;;;4.10;;
74892;SDS011;63446;56.272;43.922;2022-09-29T08:24:14;12.20;;;4.72;;
74892;SDS011;63446;56.272;43.922;2022-09-29T08:26:42;11.32;;;4.00;;
74892;SDS011;63446;56.272;43.922;2022-09-29T08:29:08;12.00;;;4.57;;
74892;SDS011;63446;56.272;43.922;2022-09-29T08:31:34;11.82;;;4.40;;
74892;SDS011;63446;56.272;43.922;2022-09-29T08:34:02;13.77;;;5.00;;
74892;SDS011;63446;56.272;43.922;2022-09-29T08:36:28;9.97;;;4.80;;
74892;SDS011;63446;56.272;43.922;2022-09-29T08:38:54;10.98;;;4.32;;
74892;SDS011;63446;56.272;43.922;2022-09-29T08:44:10;14.13;;;4.68;;
74892;SDS011;63446;56.272;43.922;2022-09-29T08:46:53;10.50;;;5.00;;
74892;SDS011;63446;56.272;43.922;2022-09-29T08:49:44;12.13;;;5.15;;
74892;SDS011;63446;56.272;43.922;2022-09-29T08:52:23;11.43;;;5.18;;
74892;SDS011;63446;56.272;43.922;2022-09-29T08:54:56;12.70;;;5.65;;
74892;SDS011;63446;56.272;43.922;2022-09-29T08:57:28;12.75;;;6.00;;
74892;SDS011;63446;56.272;43.922;2022-09-29T08:59:56;14.67;;;6.20;;
74892;SDS011;63446;56.272;43.922;2022-09-29T09:10:56;22.00;;;10.20;;
74892;SDS011;63446;56.272;43.922;2022-09-29T09:17:08;18.95;;;9.48;;
74892;SDS011;63446;56.272;43.922;2022-09-29T09:22:59;17.42;;;7.80;;
74892;SDS011;63446;56.272;43.922;2022-09-29T09:25:39;19.33;;;8.68;;
74892;SDS011;63446;56.272;43.922;2022-09-29T09:28:16;16.77;;;8.07;;
74892;SDS011;63446;56.272;43.922;2022-09-29T09:30:47;16.55;;;7.80;;
74892;SDS011;63446;56.272;43.922;2022-09-29T09:33:21;15.25;;;8.32;;
74892;SDS011;63446;56.272;43.922;2022-09-29T09:35:53;17.83;;;8.82;;
74892;SDS011;63446;56.272;43.922;2022-09-29T09:42:17;18.20;;;8.83;;
74892;SDS011;63446;56.272;43.922;2022-09-29T09:44:54;17.33;;;8.35;;
74892;SDS011;63446;56.272;43.922;2022-09-29T09:47:27;21.10;;;9.27;;
74892;SDS011;63446;56.272;43.922;2022-09-29T09:49:59;17.30;;;9.18;;
74892;SDS011;63446;56.272;43.922;2022-09-29T09:55:09;17.33;;;8.97;;
74892;SDS011;63446;56.272;43.922;2022-09-29T09:57:47;19.98;;;8.80;;
74892;SDS011;63446;56.272;43.922;2022-09-29T10:00:37;17.70;;;9.20;;
74892;SDS011;63446;56.272;43.922;2022-09-29T10:03:05;21.15;;;10.43;;
74892;SDS011;63446;56.272;43.922;2022-09-29T10:05:36;27.05;;;11.63;;
74892;SDS011;63446;56.272;43.922;2022-09-29T10:08:05;26.37;;;11.50;;
74892;SDS011;63446;56.272;43.922;2022-09-29T10:10:34;22.88;;;10.57;;
74892;SDS011;63446;56.272;43.922;2022-09-29T10:13:10;25.27;;;11.68;;
74892;SDS011;63446;56.272;43.922;2022-09-29T10:18:36;22.75;;;11.70;;
74892;SDS011;63446;56.272;43.922;2022-09-29T10:23:50;26.58;;;12.23;;
74892;SDS011;63446;56.272;43.922;2022-09-29T10:26:17;33.67;;;15.60;;
74892;SDS011;63446;56.272;43.922;2022-09-29T10:28:52;31.35;;;15.48;;
74892;SDS011;63446;56.272;43.922;2022-09-29T10:31:25;34.97;;;15.80;;
74892;SDS011;63446;56.272;43.922;2022-09-29T10:34:14;34.33;;;16.50;;
74892;SDS011;63446;56.272;43.922;2022-09-29T10:36:49;34.97;;;17.58;;
74892;SDS011;63446;56.272;43.922;2022-09-29T10:45:33;48.85;;;21.52;;
74892;SDS011;63446;56.272;43.922;2022-09-29T10:47:38;51.60;;;22.27;;
74892;SDS011;63446;56.272;43.922;2022-09-29T10:50:07;61.65;;;24.05;;
74892;SDS011;63446;56.272;43.922;2022-09-29T10:52:43;65.10;;;25.90;;
74892;SDS011;63446;56.272;43.922;2022-09-29T10:55:15;69.07;;;25.42;;
74892;SDS011;63446;56.272;43.922;2022-09-29T10:57:46;72.72;;;27.60;;
74892;SDS011;63446;56.272;43.922;2022-09-29T11:00:30;75.17;;;26.63;;
74892;SDS011;63446;56.272;43.922;2022-09-29T11:03:06;77.60;;;28.40;;
74892;SDS011;63446;56.272;43.922;2022-09-29T11:05:33;87.18;;;30.30;;
74892;SDS011;63446;56.272;43.922;2022-09-29T11:08:01;89.43;;;30.70;;
74892;SDS011;63446;56.272;43.922;2022-09-29T11:15:45;96.22;;;32.70;;
74892;SDS011;63446;56.272;43.922;2022-09-29T11:18:22;86.93;;;33.75;;
74892;SDS011;63446;56.272;43.922;2022-09-29T11:20:59;79.32;;;32.00;;
74892;SDS011;63446;56.272;43.922;2022-09-29T11:23:43;77.00;;;29.92;;
74892;SDS011;63446;56.272;43.922;2022-09-29T11:40:10;63.97;;;26.23;;
74892;SDS011;63446;56.272;43.922;2022-09-29T11:51:52;56.83;;;21.58;;
74892;SDS011;63446;56.272;43.922;2022-09-29T12:13:59;51.10;;;18.38;;
74892;SDS011;63446;56.272;43.922;2022-09-29T12:16:52;60.53;;;17.63;;
74892;SDS011;63446;56.272;43.922;2022-09-29T12:19:23;47.20;;;18.38;;
74892;SDS011;63446;56.272;43.922;2022-09-29T12:21:54;56.58;;;18.63;;
74892;SDS011;63446;56.272;43.922;2022-09-29T12:26:57;56.17;;;17.80;;
74892;SDS011;63446;56.272;43.922;2022-09-29T12:31:56;49.65;;;17.55;;
74892;SDS011;63446;56.272;43.922;2022-09-29T12:40:19;49.45;;;17.45;;
74892;SDS011;63446;56.272;43.922;2022-09-29T12:43:09;47.55;;;16.60;;
74892;SDS011;63446;56.272;43.922;2022-09-29T12:45:45;53.85;;;18.25;;
74892;SDS011;63446;56.272;43.922;2022-09-29T12:53:51;49.42;;;18.15;;
74892;SDS011;63446;56.272;43.922;2022-09-29T12:59:59;47.88;;;17.38;;
74892;SDS011;63446;56.272;43.922;2022-09-29T13:21:36;40.03;;;16.20;;
74892;SDS011;63446;56.272;43.922;2022-09-29T13:29:08;50.10;;;18.90;;
74892;SDS011;63446;56.272;43.922;2022-09-29T13:31:39;40.65;;;15.15;;
74892;SDS011;63446;56.272;43.922;2022-09-29T13:34:15;38.13;;;15.40;;
74892;SDS011;63446;56.272;43.922;2022-09-29T13:36:52;48.38;;;15.75;;
74892;SDS011;63446;56.272;43.922;2022-09-29T13:39:24;48.67;;;17.60;;
74892;SDS011;63446;56.272;43.922;2022-09-29T13:41:53;42.50;;;16.08;;
74892;SDS011;63446;56.272;43.922;2022-09-29T13:44:21;46.67;;;17.47;;
74892;SDS011;63446;56.272;43.922;2022-09-29T13:46:54;49.53;;;16.65;;
74892;SDS011;63446;56.272;43.922;2022-09-29T13:54:29;45.28;;;16.55;;
74892;SDS011;63446;56.272;43.922;2022-09-29T14:02:29;42.08;;;15.68;;
74892;SDS011;63446;56.272;43.922;2022-09-29T14:05:03;40.95;;;16.15;;
74892;SDS011;63446;56.272;43.922;2022-09-29T14:07:48;44.70;;;17.17;;
74892;SDS011;63446;56.272;43.922;2022-09-29T14:10:36;46.20;;;16.40;;
74892;SDS011;63446;56.272;43.922;2022-09-29T14:15:45;38.25;;;17.63;;
74892;SDS011;63446;56.272;43.922;2022-09-29T14:23:46;40.07;;;15.00;;
74892;SDS011;63446;56.272;43.922;2022-09-29T14:29:15;40.55;;;15.82;;
74892;SDS011;63446;56.272;43.922;2022-09-29T14:31:47;37.83;;;14.98;;
74892;SDS011;63446;56.272;43.922;2022-09-29T14:34:18;38.00;;;15.10;;
74892;SDS011;63446;56.272;43.922;2022-09-29T14:36:48;39.00;;;15.07;;
74892;SDS011;63446;56.272;43.922;2022-09-29T14:39:18;38.72;;;15.57;;
74892;SDS011;63446;56.272;43.922;2022-09-29T14:41:46;37.58;;;15.23;;
74892;SDS011;63446;56.272;43.922;2022-09-29T14:53:13;38.33;;;16.52;;
74892;SDS011;63446;56.272;43.922;2022-09-29T15:03:39;41.80;;;15.63;;
74892;SDS011;63446;56.272;43.922;2022-09-29T15:06:21;38.50;;;15.85;;
74892;SDS011;63446;56.272;43.922;2022-09-29T15:09:01;45.63;;;16.17;;
74892;SDS011;63446;56.272;43.922;2022-09-29T15:11:49;49.40;;;17.13;;
74892;SDS011;63446;56.272;43.922;2022-09-29T15:27:43;53.85;;;18.75;;
74892;SDS011;63446;56.272;43.922;2022-09-29T15:30:15;51.00;;;17.33;;
74892;SDS011;63446;56.272;43.922;2022-09-29T15:32:44;62.28;;;19.63;;
74892;SDS011;63446;56.272;43.922;2022-09-29T15:35:14;56.63;;;19.00;;
74892;SDS011;63446;56.272;43.922;2022-09-29T15:40:17;57.45;;;18.73;;
74892;SDS011;63446;56.272;43.922;2022-09-29T15:42:49;51.53;;;18.00;;
74892;SDS011;63446;56.272;43.922;2022-09-29T15:45:22;53.15;;;16.85;;
74892;SDS011;63446;56.272;43.922;2022-09-29T15:47:59;51.50;;;17.45;;
74892;SDS011;63446;56.272;43.922;2022-09-29T15:50:31;48.15;;;17.08;;
74892;SDS011;63446;56.272;43.922;2022-09-29T15:53:00;52.97;;;17.90;;
74892;SDS011;63446;56.272;43.922;2022-09-29T15:55:31;60.10;;;18.87;;
74892;SDS011;63446;56.272;43.922;2022-09-29T15:57:57;62.15;;;19.25;;
74892;SDS011;63446;56.272;43.922;2022-09-29T16:03:02;61.75;;;19.80;;
74892;SDS011;63446;56.272;43.922;2022-09-29T16:05:35;61.30;;;18.67;;
74892;SDS011;63446;56.272;43.922;2022-09-29T16:11:04;75.00;;;19.73;;
74892;SDS011;63446;56.272;43.922;2022-09-29T16:13:45;64.18;;;19.77;;
74892;SDS011;63446;56.272;43.922;2022-09-29T16:16:15;64.70;;;19.77;;
74892;SDS011;63446;56.272;43.922;2022-09-29T16:18:42;56.20;;;18.47;;
74892;SDS011;63446;56.272;43.922;2022-09-29T16:21:09;57.15;;;20.02;;
74892;SDS011;63446;56.272;43.922;2022-09-29T16:23:50;54.88;;;19.90;;
74892;SDS011;63446;56.272;43.922;2022-09-29T16:26:35;52.88;;;19.20;;
74892;SDS011;63446;56.272;43.922;2022-09-29T16:31:38;47.57;;;18.53;;
74892;SDS011;63446;56.272;43.922;2022-09-29T16:36:53;52.30;;;19.58;;
74892;SDS011;63446;56.272;43.922;2022-09-29T16:39:24;47.25;;;18.77;;
74892;SDS011;63446;56.272;43.922;2022-09-29T16:41:56;55.50;;;20.67;;
74892;SDS011;63446;56.272;43.922;2022-09-29T16:44:28;54.40;;;21.67;;
74892;SDS011;63446;56.272;43.922;2022-09-29T16:49:35;79.50;;;30.60;;
74892;SDS011;63446;56.272;43.922;2022-09-29T16:54:43;60.28;;;24.55;;
74892;SDS011;63446;56.272;43.922;2022-09-29T16:59:46;88.57;;;31.58;;
74892;SDS011;63446;56.272;43.922;2022-09-29T17:02:15;74.85;;;28.73;;
74892;SDS011;63446;56.272;43.922;2022-09-29T17:04:41;63.45;;;27.60;;
74892;SDS011;63446;56.272;43.922;2022-09-29T17:07:10;68.28;;;27.15;;
74892;SDS011;63446;56.272;43.922;2022-09-29T17:09:45;68.15;;;26.33;;
74892;SDS011;63446;56.272;43.922;2022-09-29T17:12:14;56.72;;;23.63;;
74892;SDS011;63446;56.272;43.922;2022-09-29T17:14:41;60.10;;;23.38;;
74892;SDS011;63446;56.272;43.922;2022-09-29T17:17:20;59.47;;;23.38;;
74892;SDS011;63446;56.272;43.922;2022-09-29T17:19:51;58.47;;;24.63;;
74892;SDS011;63446;56.272;43.922;2022-09-29T17:25:01;39.65;;;16.80;;
74892;SDS011;63446;56.272;43.922;2022-09-29T17:27:28;41.60;;;16.80;;
74892;SDS011;63446;56.272;43.922;2022-09-29T17:30:14;35.25;;;15.27;;
74892;SDS011;63446;56.272;43.922;2022-09-29T17:32:43;42.60;;;18.00;;
74892;SDS011;63446;56.272;43.922;2022-09-29T17:35:14;40.42;;;17.67;;
74892;SDS011;63446;56.272;43.922;2022-09-29T17:37:42;50.83;;;19.50;;
74892;SDS011;63446;56.272;43.922;2022-09-29T17:40:15;45.38;;;18.85;;
74892;SDS011;63446;56.272;43.922;2022-09-29T17:42:43;45.60;;;17.67;;
74892;SDS011;63446;56.272;43.922;2022-09-29T17:45:12;38.05;;;16.38;;
74892;SDS011;63446;56.272;43.922;2022-09-29T17:47:42;47.63;;;19.73;;
74892;SDS011;63446;56.272;43.922;2022-09-29T17:50:13;48.85;;;21.98;;
74892;SDS011;63446;56.272;43.922;2022-09-29T17:52:44;56.50;;;24.42;;
74892;SDS011;63446;56.272;43.922;2022-09-29T17:55:10;56.90;;;24.53;;
74892;SDS011;63446;56.272;43.922;2022-09-29T17:57:36;62.80;;;26.15;;
74892;SDS011;63446;56.272;43.922;2022-09-29T18:00:10;63.55;;;25.83;;
74892;SDS011;63446;56.272;43.922;2022-09-29T18:02:44;70.95;;;27.55;;
74892;SDS011;63446;56.272;43.922;2022-09-29T18:05:10;68.70;;;28.93;;
74892;SDS011;63446;56.272;43.922;2022-09-29T18:07:36;59.90;;;25.17;;
74892;SDS011;63446;56.272;43.922;2022-09-29T18:10:05;68.03;;;25.95;;
74892;SDS011;63446;56.272;43.922;2022-09-29T18:12:42;61.03;;;26.70;;
74892;SDS011;63446;56.272;43.922;2022-09-29T18:15:08;65.60;;;26.60;;
74892;SDS011;63446;56.272;43.922;2022-09-29T18:17:37;64.35;;;25.60;;
74892;SDS011;63446;56.272;43.922;2022-09-29T18:20:14;55.42;;;25.02;;
74892;SDS011;63446;56.272;43.922;2022-09-29T18:22:41;67.53;;;28.60;;
74892;SDS011;63446;56.272;43.922;2022-09-29T18:25:12;67.90;;;30.00;;
74892;SDS011;63446;56.272;43.922;2022-09-29T18:27:40;63.58;;;26.15;;
74892;SDS011;63446;56.272;43.922;2022-09-29T18:32:55;38.78;;;17.38;;
74892;SDS011;63446;56.272;43.922;2022-09-29T18:35:31;32.67;;;14.47;;
74892;SDS011;63446;56.272;43.922;2022-09-29T18:37:59;52.00;;;21.42;;
74892;SDS011;63446;56.272;43.922;2022-09-29T18:40:26;51.47;;;21.65;;
74892;SDS011;63446;56.272;43.922;2022-09-29T18:42:54;44.15;;;19.88;;
74892;SDS011;63446;56.272;43.922;2022-09-29T18:45:22;37.92;;;16.85;;
74892;SDS011;63446;56.272;43.922;2022-09-29T18:47:51;40.57;;;17.47;;
74892;SDS011;63446;56.272;43.922;2022-09-29T18:50:24;43.92;;;18.75;;
74892;SDS011;63446;56.272;43.922;2022-09-29T18:52:52;45.30;;;20.05;;